createdAt,value
2019-04-27T00:01:50.867Z,36.10
2019-04-27T00:04:37.279Z,34.97
2019-04-27T00:07:26.568Z,33.77
2019-04-27T00:10:00.726Z,34.70
2019-04-27T00:12:27.566Z,34.67
2019-04-27T00:14:56.073Z,32.60
2019-04-27T00:17:49.577Z,39.48
2019-04-27T00:20:43.365Z,37.08
2019-04-27T00:23:13.298Z,29.37
2019-04-27T00:25:41.364Z,30.87
2019-04-27T00:28:08.109Z,30.43
2019-04-27T00:30:35.573Z,31.13
2019-04-27T00:33:03.032Z,31.23
2019-04-27T00:35:39.699Z,33.63
2019-04-27T00:38:24.878Z,32.07
2019-04-27T00:41:05.134Z,32.20
2019-04-27T00:43:34.008Z,33.40
2019-04-27T00:46:00.841Z,34.27
2019-04-27T00:48:27.784Z,33.13
2019-04-27T00:50:54.638Z,34.87
2019-04-27T00:53:21.230Z,36.00
2019-04-27T00:56:05.686Z,35.67
2019-04-27T00:58:39.472Z,35.87
2019-04-27T01:01:24.171Z,37.43
2019-04-27T01:04:04.001Z,36.27
2019-04-27T01:06:30.712Z,35.37
2019-04-27T01:08:57.331Z,35.80
2019-04-27T01:11:24.931Z,35.70
2019-04-27T01:13:53.669Z,37.37
2019-04-27T01:16:22.473Z,34.63
2019-04-27T01:18:49.957Z,33.13
2019-04-27T01:21:16.568Z,35.67
2019-04-27T01:23:44.709Z,34.80
2019-04-27T01:26:34.742Z,35.93
2019-04-27T01:29:04.431Z,35.00
2019-04-27T01:31:31.716Z,35.93
2019-04-27T01:33:59.048Z,35.57
2019-04-27T01:36:26.426Z,36.00
2019-04-27T01:38:53.085Z,37.17
2019-04-27T01:41:19.755Z,37.30
2019-04-27T01:43:46.362Z,37.63
2019-04-27T01:46:13.167Z,36.83
2019-04-27T01:48:39.771Z,35.83
2019-04-27T01:51:06.397Z,36.70
2019-04-27T01:53:33.117Z,38.20
2019-04-27T01:55:59.827Z,37.80
2019-04-27T01:58:26.594Z,40.17
2019-04-27T02:01:25.024Z,39.33
2019-04-27T02:04:05.128Z,34.00
2019-04-27T02:06:31.956Z,37.87
2019-04-27T02:08:59.527Z,37.10
2019-04-27T02:11:28.642Z,38.63
2019-04-27T02:13:59.434Z,38.00
2019-04-27T02:16:30.337Z,38.33
2019-04-27T02:18:55.972Z,35.27
2019-04-27T02:21:22.711Z,34.47
2019-04-27T02:23:49.807Z,36.17
2019-04-27T02:26:16.905Z,36.23
2019-04-27T02:28:53.897Z,37.63
2019-04-27T02:31:31.277Z,36.43
2019-04-27T02:34:05.563Z,34.10
2019-04-27T02:36:34.021Z,33.80
2019-04-27T02:39:00.772Z,34.43
2019-04-27T02:41:29.770Z,35.40
2019-04-27T02:44:11.477Z,35.13
2019-04-27T02:46:39.517Z,40.20
2019-04-27T02:49:07.490Z,39.88
2019-04-27T02:51:49.622Z,32.53
2019-04-27T02:54:16.509Z,29.63
2019-04-27T02:56:43.383Z,29.97
2019-04-27T02:59:11.960Z,30.90
2019-04-27T03:01:46.897Z,30.87
2019-04-27T03:04:13.908Z,31.77
2019-04-27T03:06:40.726Z,30.37
2019-04-27T03:09:10.479Z,31.33
2019-04-27T03:11:39.581Z,31.37
2019-04-27T03:14:36.233Z,31.17
2019-04-27T03:17:19.968Z,30.13
2019-04-27T03:19:55.579Z,31.17
2019-04-27T03:22:32.992Z,31.03
2019-04-27T03:25:30.323Z,29.97
2019-04-27T03:28:03.061Z,29.80
2019-04-27T03:30:31.632Z,29.07
2019-04-27T03:33:02.786Z,30.63
2019-04-27T03:35:32.104Z,31.80
2019-04-27T03:38:00.353Z,31.10
2019-04-27T03:40:26.555Z,28.93
2019-04-27T03:42:56.538Z,31.90
2019-04-27T03:45:23.321Z,29.40
2019-04-27T03:47:50.758Z,30.13
2019-04-27T03:50:23.110Z,29.80
2019-04-27T03:53:10.312Z,30.33
2019-04-27T03:55:39.763Z,29.90
2019-04-27T03:58:21.401Z,30.10
2019-04-27T04:00:46.371Z,28.97
2019-04-27T04:03:14.426Z,27.10
2019-04-27T04:05:41.332Z,28.03
2019-04-27T04:08:10.445Z,27.40
2019-04-27T04:10:41.713Z,28.97
2019-04-27T04:13:20.419Z,28.60
2019-04-27T04:16:14.496Z,28.37
2019-04-27T04:19:00.912Z,27.40
2019-04-27T04:21:29.807Z,27.33
2019-04-27T04:23:56.479Z,26.87
2019-04-27T04:26:23.389Z,28.33
2019-04-27T04:28:50.184Z,28.87
2019-04-27T04:31:16.968Z,28.87
2019-04-27T04:33:43.841Z,27.23
2019-04-27T04:36:10.603Z,27.83
2019-04-27T04:38:37.401Z,29.43
2019-04-27T04:41:09.571Z,28.40
2019-04-27T04:43:45.223Z,27.63
2019-04-27T04:46:32.856Z,27.63
2019-04-27T04:49:00.356Z,28.50
2019-04-27T04:51:30.281Z,26.43
2019-04-27T04:53:59.744Z,25.60
2019-04-27T04:56:26.711Z,25.30
2019-04-27T04:58:53.655Z,24.50
2019-04-27T05:01:21.520Z,22.87
2019-04-27T05:03:48.931Z,22.33
2019-04-27T05:06:16.030Z,22.60
2019-04-27T05:08:44.571Z,22.87
2019-04-27T05:11:11.264Z,22.00
2019-04-27T05:13:39.336Z,23.27
2019-04-27T05:16:06.451Z,23.87
2019-04-27T05:18:33.198Z,23.47
2019-04-27T05:21:06.047Z,22.30
2019-04-27T05:23:32.900Z,21.97
2019-04-27T05:25:59.721Z,22.23
2019-04-27T05:28:26.353Z,24.07
2019-04-27T05:30:54.223Z,23.17
2019-04-27T05:33:22.645Z,23.67
2019-04-27T05:35:49.435Z,22.83
2019-04-27T05:38:16.429Z,22.43
2019-04-27T05:40:43.190Z,22.97
2019-04-27T05:43:11.928Z,23.73
2019-04-27T05:46:42.073Z,22.37
2019-04-27T05:49:31.621Z,20.77
2019-04-27T05:51:59.462Z,19.97
2019-04-27T05:54:29.279Z,19.30
2019-04-27T05:56:55.042Z,20.63
2019-04-27T05:59:21.875Z,21.13
2019-04-27T06:01:49.318Z,20.30
2019-04-27T06:04:16.651Z,21.17
2019-04-27T06:06:43.814Z,20.67
2019-04-27T06:09:12.036Z,21.50
2019-04-27T06:11:39.980Z,21.63
2019-04-27T06:14:07.159Z,21.90
2019-04-27T06:16:33.709Z,21.53
2019-04-27T06:19:00.287Z,19.63
2019-04-27T06:21:29.515Z,21.13
2019-04-27T06:23:56.359Z,20.40
2019-04-27T06:26:23.719Z,19.90
2019-04-27T06:28:50.539Z,20.20
2019-04-27T06:31:17.279Z,21.23
2019-04-27T06:33:43.878Z,21.17
2019-04-27T06:36:10.848Z,20.27
2019-04-27T06:38:39.393Z,20.65
2019-04-27T06:41:10.024Z,19.97
2019-04-27T06:43:40.446Z,20.77
2019-04-27T06:46:10.445Z,21.70
2019-04-27T06:48:37.395Z,21.20
2019-04-27T06:51:05.875Z,21.80
2019-04-27T06:53:32.732Z,20.77
2019-04-27T06:55:59.503Z,20.62
2019-04-27T06:58:26.596Z,20.65
2019-04-27T07:00:53.183Z,19.95
2019-04-27T07:03:19.946Z,19.15
2019-04-27T07:05:48.614Z,19.32
2019-04-27T07:08:16.230Z,19.10
2019-04-27T07:10:43.515Z,19.57
2019-04-27T07:13:10.540Z,20.50
2019-04-27T07:15:38.707Z,20.50
2019-04-27T07:18:05.552Z,20.00
2019-04-27T07:20:32.567Z,20.75
2019-04-27T07:23:00.195Z,18.87
2019-04-27T07:25:28.807Z,20.00
2019-04-27T07:27:55.486Z,19.55
2019-04-27T07:30:22.251Z,19.37
2019-04-27T07:32:49.014Z,16.80
2019-04-27T07:35:16.639Z,17.32
2019-04-27T07:37:43.346Z,15.50
2019-04-27T07:40:10.326Z,15.45
2019-04-27T07:42:36.915Z,14.47
2019-04-27T07:45:12.516Z,14.47
2019-04-27T07:47:41.952Z,13.80
2019-04-27T07:50:09.662Z,13.88
2019-04-27T07:52:37.950Z,14.40
2019-04-27T07:55:05.148Z,14.47
2019-04-27T07:57:32.111Z,13.15
2019-04-27T07:59:59.624Z,14.20
2019-04-27T08:02:26.456Z,13.53
2019-04-27T08:04:53.093Z,13.35
2019-04-27T08:07:19.898Z,13.62
2019-04-27T08:09:46.588Z,14.85
2019-04-27T08:12:13.506Z,13.85
2019-04-27T08:14:40.605Z,13.72
2019-04-27T08:17:07.322Z,14.35
2019-04-27T08:19:33.933Z,14.47
2019-04-27T08:22:01.608Z,14.28
2019-04-27T08:24:29.472Z,12.78
2019-04-27T08:27:09.458Z,12.88
2019-04-27T08:29:54.693Z,13.00
2019-04-27T08:32:26.541Z,11.90
2019-04-27T08:34:53.355Z,11.63
2019-04-27T08:37:20.308Z,11.18
2019-04-27T08:39:46.939Z,12.98
2019-04-27T08:42:13.939Z,10.35
2019-04-27T08:44:40.701Z,10.45
2019-04-27T08:47:09.608Z,11.65
2019-04-27T08:49:36.276Z,11.20
2019-04-27T08:52:03.368Z,9.73
2019-04-27T08:54:29.998Z,10.08
2019-04-27T08:56:56.918Z,8.85
2019-04-27T08:59:23.824Z,10.18
2019-04-27T09:01:50.581Z,10.25
2019-04-27T09:04:17.236Z,10.50
2019-04-27T09:06:46.048Z,10.75
2019-04-27T09:09:36.299Z,9.08
2019-04-27T09:12:23.100Z,9.35
2019-04-27T09:14:59.178Z,9.58
2019-04-27T09:17:35.969Z,9.95
2019-04-27T09:20:26.439Z,8.18
2019-04-27T09:22:53.872Z,7.40
2019-04-27T09:25:20.552Z,6.37
2019-04-27T09:27:49.146Z,6.50
2019-04-27T09:30:15.945Z,6.55
2019-04-27T09:32:42.493Z,6.22
2019-04-27T09:35:09.951Z,6.22
2019-04-27T09:37:37.105Z,5.95
2019-04-27T09:40:06.321Z,6.05
2019-04-27T09:42:36.237Z,5.83
2019-04-27T09:45:06.647Z,4.87
2019-04-27T09:47:34.096Z,4.65
2019-04-27T09:50:02.316Z,4.35
2019-04-27T09:52:30.294Z,4.35
2019-04-27T09:55:01.614Z,11.43
2019-04-27T09:57:31.748Z,3.85
2019-04-27T09:59:59.419Z,3.00
2019-04-27T10:02:27.012Z,3.77
2019-04-27T10:04:54.477Z,3.00
2019-04-27T10:07:21.858Z,2.60
2019-04-27T10:09:49.416Z,3.02
2019-04-27T10:12:17.675Z,2.92
2019-04-27T10:14:45.466Z,2.80
2019-04-27T10:17:13.911Z,2.60
2019-04-27T10:19:41.191Z,2.90
2019-04-27T10:22:08.377Z,2.80
2019-04-27T10:24:37.957Z,2.85
2019-04-27T10:27:07.760Z,2.50
2019-04-27T10:29:35.621Z,3.05
2019-04-27T10:32:06.233Z,2.42
2019-04-27T10:34:33.390Z,2.42
2019-04-27T10:37:06.397Z,2.90
2019-04-27T10:39:38.826Z,2.55
2019-04-27T10:42:06.707Z,2.02
2019-04-27T10:44:35.494Z,1.98
2019-04-27T10:47:02.313Z,1.87
2019-04-27T10:49:29.511Z,2.02
2019-04-27T10:51:56.628Z,1.67
2019-04-27T10:54:23.257Z,2.10
2019-04-27T10:56:50.456Z,1.70
2019-04-27T10:59:17.089Z,2.00
2019-04-27T11:01:45.856Z,1.60
2019-04-27T11:04:32.273Z,1.87
2019-04-27T11:07:01.473Z,1.60
2019-04-27T11:09:28.240Z,2.02
2019-04-27T11:11:57.135Z,1.70
2019-04-27T11:14:25.691Z,1.65
2019-04-27T11:16:52.934Z,1.80
2019-04-27T11:19:19.736Z,1.90
2019-04-27T11:21:46.603Z,1.82
2019-04-27T11:24:13.625Z,1.65
2019-04-27T11:26:40.409Z,1.70
2019-04-27T11:29:07.315Z,1.40
2019-04-27T11:31:34.065Z,1.30
2019-04-27T11:34:00.805Z,1.30
2019-04-27T11:36:39.212Z,1.40
2019-04-27T11:39:11.638Z,1.42
2019-04-27T11:41:38.597Z,1.15
2019-04-27T11:44:05.479Z,1.05
2019-04-27T11:46:33.265Z,1.10
2019-04-27T11:49:00.482Z,1.10
2019-04-27T11:51:27.850Z,1.00
2019-04-27T11:53:55.696Z,1.10
2019-04-27T11:56:22.253Z,1.30
2019-04-27T11:58:49.269Z,0.88
2019-04-27T12:01:16.086Z,0.90
2019-04-27T12:03:42.815Z,1.20
2019-04-27T12:06:09.551Z,0.80
2019-04-27T12:08:37.870Z,0.90
2019-04-27T12:11:05.932Z,0.82
2019-04-27T12:13:32.829Z,0.80
2019-04-27T12:15:59.531Z,0.98
2019-04-27T12:18:26.204Z,0.90
2019-04-27T12:20:55.794Z,0.82
2019-04-27T12:23:33.009Z,0.78
2019-04-27T12:25:51.522Z,1.00
2019-04-27T12:28:33.178Z,0.80
2019-04-27T12:31:19.197Z,0.90
2019-04-27T12:33:47.053Z,0.95
2019-04-27T12:36:15.644Z,0.88
2019-04-27T12:38:42.882Z,1.17
2019-04-27T12:41:10.631Z,1.00
2019-04-27T12:43:37.576Z,1.30
2019-04-27T12:46:05.941Z,0.98
2019-04-27T12:48:33.437Z,1.02
2019-04-27T12:51:01.863Z,0.80
2019-04-27T12:53:49.859Z,0.70
2019-04-27T12:56:33.750Z,1.10
2019-04-27T12:59:07.424Z,0.90
2019-04-27T13:01:36.000Z,0.82
2019-04-27T13:04:03.087Z,0.90
2019-04-27T13:06:29.921Z,0.85
2019-04-27T13:08:57.559Z,0.93
2019-04-27T13:11:26.512Z,0.70
2019-04-27T13:13:52.959Z,0.80
2019-04-27T13:16:19.612Z,0.80
2019-04-27T13:18:46.266Z,0.90
2019-04-27T13:21:13.263Z,0.60
2019-04-27T13:23:41.090Z,0.90
2019-04-27T13:26:07.900Z,0.88
2019-04-27T13:28:35.873Z,1.02
2019-04-27T13:31:03.072Z,0.80
2019-04-27T13:33:29.738Z,0.85
2019-04-27T13:35:56.451Z,0.72
2019-04-27T13:38:23.406Z,0.60
2019-04-27T13:41:06.827Z,0.68
2019-04-27T13:43:35.077Z,0.95
2019-04-27T13:46:39.640Z,4.45
2019-04-27T13:49:33.654Z,7.12
2019-04-27T13:52:07.458Z,7.28
2019-04-27T13:54:34.741Z,8.65
2019-04-27T13:57:01.523Z,8.73
2019-04-27T13:59:28.324Z,8.05
2019-04-27T14:01:55.106Z,7.58
2019-04-27T14:04:24.152Z,8.38
2019-04-27T14:06:50.904Z,6.95
2019-04-27T14:09:17.663Z,6.78
2019-04-27T14:11:44.478Z,7.53
2019-04-27T14:14:14.955Z,7.50
2019-04-27T14:16:43.977Z,8.65
2019-04-27T14:19:11.135Z,7.72
2019-04-27T14:21:38.004Z,7.58
2019-04-27T14:24:05.893Z,8.50
2019-04-27T14:26:35.614Z,6.92
2019-04-27T14:29:02.464Z,5.20
2019-04-27T14:31:30.504Z,4.97
2019-04-27T14:33:58.765Z,4.50
2019-04-27T14:36:25.860Z,3.75
2019-04-27T14:38:52.802Z,3.50
2019-04-27T14:41:21.542Z,3.72
2019-04-27T14:43:49.925Z,3.72
2019-04-27T14:46:18.647Z,3.42
2019-04-27T14:48:45.194Z,3.90
2019-04-27T14:51:12.412Z,3.67
2019-04-27T14:53:39.326Z,4.00
2019-04-27T14:56:08.842Z,4.50
2019-04-27T14:58:35.987Z,4.22
2019-04-27T15:01:02.928Z,4.03
2019-04-27T15:03:29.826Z,4.87
2019-04-27T15:05:56.793Z,4.37
2019-04-27T15:08:25.159Z,3.92
2019-04-27T15:10:53.962Z,4.00
2019-04-27T15:13:21.128Z,4.15
2019-04-27T15:15:47.820Z,4.03
2019-04-27T15:18:15.289Z,4.12
2019-04-27T15:20:46.183Z,4.03
2019-04-27T15:23:13.415Z,4.62
2019-04-27T15:25:45.614Z,4.15
2019-04-27T15:28:15.288Z,4.65
2019-04-27T15:31:23.586Z,11.93
2019-04-27T15:34:02.671Z,4.55
2019-04-27T15:36:56.885Z,4.40
2019-04-27T15:39:37.532Z,4.30
2019-04-27T15:42:08.159Z,4.35
2019-04-27T15:44:36.450Z,4.50
2019-04-27T15:47:10.339Z,4.70
2019-04-27T15:49:33.610Z,4.77
2019-04-27T15:52:00.263Z,4.40
2019-04-27T15:54:31.912Z,4.73
2019-04-27T15:56:55.863Z,4.08
2019-04-27T15:59:30.959Z,4.90
2019-04-27T16:01:55.724Z,5.07
2019-04-27T16:04:23.070Z,5.72
2019-04-27T16:06:50.205Z,5.90
2019-04-27T16:09:23.939Z,6.70
2019-04-27T16:11:50.136Z,6.75
2019-04-27T16:14:16.024Z,6.70
2019-04-27T16:16:43.783Z,6.90
2019-04-27T16:19:11.649Z,6.92
2019-04-27T16:21:41.597Z,6.58
2019-04-27T16:24:08.487Z,7.33
2019-04-27T16:26:35.275Z,7.12
2019-04-27T16:29:04.473Z,8.05
2019-04-27T16:31:32.880Z,7.28
2019-04-27T16:34:02.766Z,7.37
2019-04-27T16:36:30.002Z,7.30
2019-04-27T16:39:03.761Z,7.70
2019-04-27T16:41:33.128Z,7.30
2019-04-27T16:44:02.222Z,8.30
2019-04-27T16:46:29.448Z,7.62
2019-04-27T16:48:59.230Z,7.30
2019-04-27T16:51:24.689Z,7.33
2019-04-27T16:53:54.606Z,7.77
2019-04-27T16:56:20.994Z,7.75
2019-04-27T16:58:56.295Z,8.30
2019-04-27T17:01:21.495Z,8.20
2019-04-27T17:03:48.677Z,8.03
2019-04-27T17:06:15.605Z,8.25
2019-04-27T17:08:42.697Z,7.72
2019-04-27T17:11:13.710Z,8.60
2019-04-27T17:13:44.398Z,8.10
2019-04-27T17:16:24.790Z,7.87
2019-04-27T17:19:04.737Z,6.92
2019-04-27T17:21:33.292Z,7.25
2019-04-27T17:24:03.002Z,7.05
2019-04-27T17:26:29.233Z,6.92
2019-04-27T17:29:09.703Z,6.73
2019-04-27T17:31:35.344Z,7.22
2019-04-27T17:34:01.935Z,6.53
2019-04-27T17:36:30.368Z,6.90
2019-04-27T17:38:58.409Z,7.80
2019-04-27T17:41:25.179Z,6.90
2019-04-27T17:43:51.814Z,7.37
2019-04-27T17:46:19.953Z,7.07
2019-04-27T17:48:48.587Z,7.37
2019-04-27T17:51:15.670Z,7.33
2019-04-27T17:53:44.386Z,7.47
2019-04-27T17:56:11.183Z,7.73
2019-04-27T17:58:39.695Z,7.27
2019-04-27T18:01:09.548Z,6.60
2019-04-27T18:03:38.730Z,8.20
2019-04-27T18:06:06.001Z,7.33
2019-04-27T18:08:32.870Z,7.70
2019-04-27T18:11:03.068Z,7.50
2019-04-27T18:13:28.835Z,8.08
2019-04-27T18:15:55.516Z,10.23
2019-04-27T18:18:41.433Z,8.63
2019-04-27T18:21:09.000Z,8.50
2019-04-27T18:23:37.648Z,8.20
2019-04-27T18:26:30.135Z,9.90
2019-04-27T18:29:00.038Z,8.63
2019-04-27T18:31:25.534Z,8.77
2019-04-27T18:33:52.104Z,9.53
2019-04-27T18:36:18.943Z,8.67
2019-04-27T18:38:46.639Z,8.57
2019-04-27T18:41:14.053Z,8.40
2019-04-27T18:43:46.475Z,8.57
2019-04-27T18:46:09.653Z,9.70
2019-04-27T18:49:03.286Z,8.83
2019-04-27T18:51:52.624Z,9.13
2019-04-27T18:54:19.403Z,8.60
2019-04-27T18:56:47.825Z,8.80
2019-04-27T18:59:15.264Z,8.57
2019-04-27T19:01:41.840Z,8.77
2019-04-27T19:04:08.792Z,8.53
2019-04-27T19:06:39.124Z,9.33
2019-04-27T19:09:05.863Z,8.50
2019-04-27T19:11:33.163Z,8.77
2019-04-27T19:14:00.694Z,9.37
2019-04-27T19:16:29.193Z,8.70
2019-04-27T19:18:58.266Z,9.33
2019-04-27T19:21:24.899Z,8.67
2019-04-27T19:23:52.488Z,8.23
2019-04-27T19:26:41.385Z,9.07
2019-04-27T19:29:14.293Z,7.73
2019-04-27T19:31:45.332Z,6.40
2019-04-27T19:34:12.931Z,6.30
2019-04-27T19:36:39.586Z,6.83
2019-04-27T19:39:08.726Z,6.93
2019-04-27T19:41:37.904Z,7.30
2019-04-27T19:44:04.771Z,6.33
2019-04-27T19:46:31.448Z,6.53
2019-04-27T19:48:59.404Z,6.43
2019-04-27T19:51:28.537Z,6.20
2019-04-27T19:53:55.165Z,6.30
2019-04-27T19:56:22.227Z,6.13
2019-04-27T19:58:52.741Z,5.80
2019-04-27T20:01:28.349Z,6.00
2019-04-27T20:04:00.056Z,6.23
2019-04-27T20:06:26.787Z,7.07
2019-04-27T20:08:55.377Z,6.50
2019-04-27T20:11:22.925Z,5.70
2019-04-27T20:13:50.602Z,5.97
2019-04-27T20:16:20.798Z,5.73
2019-04-27T20:18:47.642Z,6.57
2019-04-27T20:21:14.375Z,6.37
2019-04-27T20:23:41.321Z,6.07
2019-04-27T20:26:08.137Z,5.93
2019-04-27T20:28:34.992Z,5.97
2019-04-27T20:31:02.817Z,5.70
2019-04-27T20:33:31.153Z,6.40
2019-04-27T20:35:57.893Z,5.47
2019-04-27T20:38:24.604Z,5.80
2019-04-27T20:40:52.842Z,4.87
2019-04-27T20:43:21.383Z,5.90
2019-04-27T20:45:48.279Z,6.87
2019-04-27T20:48:14.923Z,5.37
2019-04-27T20:50:41.819Z,4.63
2019-04-27T20:53:13.481Z,4.83
2019-04-27T20:55:40.483Z,5.00
2019-04-27T20:58:08.244Z,4.87
2019-04-27T21:00:35.269Z,4.53
2019-04-27T21:03:25.100Z,4.70
2019-04-27T21:06:21.238Z,5.57
2019-04-27T21:08:49.336Z,5.73
2019-04-27T21:11:16.303Z,5.20
2019-04-27T21:13:43.252Z,5.07
2019-04-27T21:16:10.932Z,5.10
2019-04-27T21:18:38.594Z,6.47
2019-04-27T21:21:05.483Z,6.13
2019-04-27T21:23:32.344Z,5.47
2019-04-27T21:25:59.300Z,4.67
2019-04-27T21:28:26.009Z,5.00
2019-04-27T21:30:53.079Z,4.43
2019-04-27T21:33:21.552Z,3.93
2019-04-27T21:35:51.013Z,4.17
2019-04-27T21:38:17.831Z,3.80
2019-04-27T21:40:44.451Z,4.27
2019-04-27T21:43:11.439Z,4.43
2019-04-27T21:45:38.026Z,4.10
2019-04-27T21:48:04.647Z,4.10
2019-04-27T21:50:31.646Z,4.37
2019-04-27T21:53:04.415Z,4.03
2019-04-27T21:55:31.185Z,4.47
2019-04-27T21:57:57.844Z,3.57
2019-04-27T22:00:52.469Z,4.30
2019-04-27T22:03:24.771Z,4.43
2019-04-27T22:05:51.665Z,4.97
2019-04-27T22:08:18.301Z,4.47
2019-04-27T22:10:45.067Z,5.17
2019-04-27T22:13:11.798Z,5.10
2019-04-27T22:15:38.524Z,5.03
2019-04-27T22:18:05.312Z,5.03
2019-04-27T22:20:32.504Z,5.60
2019-04-27T22:23:01.800Z,5.30
2019-04-27T22:25:32.363Z,6.10
2019-04-27T22:27:59.038Z,6.17
2019-04-27T22:30:25.891Z,5.80
2019-04-27T22:32:52.578Z,5.93
2019-04-27T22:35:20.693Z,6.13
2019-04-27T22:37:49.077Z,6.40
2019-04-27T22:40:39.496Z,6.70
2019-04-27T22:43:20.410Z,6.23
2019-04-27T22:45:47.151Z,6.23
2019-04-27T22:48:13.708Z,6.73
2019-04-27T22:50:41.338Z,7.07
2019-04-27T22:53:08.504Z,6.80
2019-04-27T22:55:38.511Z,6.23
2019-04-27T22:58:12.628Z,6.47
2019-04-27T23:00:57.475Z,6.77
2019-04-27T23:03:28.526Z,6.83
2019-04-27T23:05:55.148Z,7.10
2019-04-27T23:08:22.694Z,6.80
2019-04-27T23:10:49.539Z,7.40
2019-04-27T23:13:16.538Z,6.90
2019-04-27T23:15:46.275Z,7.30
2019-04-27T23:18:13.267Z,6.97
2019-04-27T23:20:40.769Z,7.93
2019-04-27T23:23:11.271Z,7.67
2019-04-27T23:25:38.019Z,8.10
2019-04-27T23:28:05.992Z,7.93
2019-04-27T23:30:43.409Z,7.37
2019-04-27T23:33:11.149Z,8.90
2019-04-27T23:35:41.059Z,7.97
2019-04-27T23:38:16.834Z,8.40
2019-04-27T23:40:36.965Z,8.47
2019-04-27T23:43:03.798Z,8.13
2019-04-27T23:45:31.901Z,7.80
2019-04-27T23:47:58.780Z,8.30
2019-04-27T23:50:27.749Z,9.07
2019-04-27T23:53:05.881Z,7.93
2019-04-27T23:55:33.582Z,9.00
2019-04-27T23:58:00.541Z,9.47
